sensor_id;sensor_type;location;lat;lon;timestamp;pressure;altitude;pressure_sealevel;temperature;humidity
61682;BME280;47577;43.610;25.010;2023-06-10T00:01:51;99899.16;;;16.89;71.77
61682;BME280;47577;43.610;25.010;2023-06-10T00:04:20;99900.31;;;16.85;73.66
61682;BME280;47577;43.610;25.010;2023-06-10T00:06:47;99898.03;;;16.78;72.12
61682;BME280;47577;43.610;25.010;2023-06-10T00:09:15;99901.03;;;16.74;71.86
61682;BME280;47577;43.610;25.010;2023-06-10T00:11:41;99880.16;;;16.64;73.28
61682;BME280;47577;43.610;25.010;2023-06-10T00:14:08;99885.75;;;16.61;73.08
61682;BME280;47577;43.610;25.010;2023-06-10T00:16:34;99889.41;;;16.60;72.40
61682;BME280;47577;43.610;25.010;2023-06-10T00:19:03;99885.28;;;16.55;72.45
61682;BME280;47577;43.610;25.010;2023-06-10T00:21:34;99892.03;;;16.48;72.64
61682;BME280;47577;43.610;25.010;2023-06-10T00:24:06;99890.22;;;16.48;72.68
61682;BME280;47577;43.610;25.010;2023-06-10T00:26:40;99887.81;;;16.43;72.81
61682;BME280;47577;43.610;25.010;2023-06-10T00:29:06;99882.75;;;16.39;71.62
61682;BME280;47577;43.610;25.010;2023-06-10T00:31:36;99880.63;;;16.31;71.51
61682;BME280;47577;43.610;25.010;2023-06-10T00:34:02;99879.38;;;16.22;69.60
61682;BME280;47577;43.610;25.010;2023-06-10T00:36:28;99882.97;;;16.36;72.16
61682;BME280;47577;43.610;25.010;2023-06-10T00:38:55;99883.31;;;16.44;71.66
61682;BME280;47577;43.610;25.010;2023-06-10T00:41:20;99870.22;;;16.39;73.05
61682;BME280;47577;43.610;25.010;2023-06-10T00:43:46;99875.25;;;16.44;72.31
61682;BME280;47577;43.610;25.010;2023-06-10T00:46:12;99881.91;;;16.38;71.99
61682;BME280;47577;43.610;25.010;2023-06-10T00:48:39;99887.69;;;16.32;73.06
61682;BME280;47577;43.610;25.010;2023-06-10T00:51:05;99878.44;;;16.23;72.41
61682;BME280;47577;43.610;25.010;2023-06-10T00:53:32;99887.63;;;16.19;71.57
61682;BME280;47577;43.610;25.010;2023-06-10T00:55:58;99880.19;;;16.10;72.06
61682;BME280;47577;43.610;25.010;2023-06-10T00:58:24;99887.06;;;16.14;73.11
61682;BME280;47577;43.610;25.010;2023-06-10T01:00:51;99888.34;;;16.08;74.12
61682;BME280;47577;43.610;25.010;2023-06-10T01:03:17;99884.03;;;16.06;73.07
61682;BME280;47577;43.610;25.010;2023-06-10T01:05:43;99876.19;;;16.03;74.13
61682;BME280;47577;43.610;25.010;2023-06-10T01:08:38;99891.31;;;16.04;74.33
61682;BME280;47577;43.610;25.010;2023-06-10T01:11:08;99892.34;;;16.01;74.22
61682;BME280;47577;43.610;25.010;2023-06-10T01:13:41;99889.13;;;15.96;74.93
61682;BME280;47577;43.610;25.010;2023-06-10T01:16:07;99894.19;;;16.01;73.74
61682;BME280;47577;43.610;25.010;2023-06-10T01:18:33;99892.34;;;16.01;73.74
61682;BME280;47577;43.610;25.010;2023-06-10T01:20:58;99899.16;;;16.07;74.61
61682;BME280;47577;43.610;25.010;2023-06-10T01:23:24;99900.41;;;16.01;73.69
61682;BME280;47577;43.610;25.010;2023-06-10T01:26:07;99897.16;;;15.96;74.08
61682;BME280;47577;43.610;25.010;2023-06-10T01:33:43;99911.88;;;16.03;74.66
61682;BME280;47577;43.610;25.010;2023-06-10T01:36:10;99910.66;;;15.95;74.78
61682;BME280;47577;43.610;25.010;2023-06-10T01:38:40;99918.72;;;15.95;75.12
61682;BME280;47577;43.610;25.010;2023-06-10T01:41:08;99922.66;;;15.89;75.10
61682;BME280;47577;43.610;25.010;2023-06-10T01:43:35;99909.44;;;15.86;75.17
61682;BME280;47577;43.610;25.010;2023-06-10T01:46:02;99921.59;;;15.92;75.26
61682;BME280;47577;43.610;25.010;2023-06-10T01:48:28;99919.47;;;15.82;74.75
61682;BME280;47577;43.610;25.010;2023-06-10T01:50:53;99922.03;;;15.98;74.48
61682;BME280;47577;43.610;25.010;2023-06-10T01:53:21;99928.56;;;16.08;75.78
61682;BME280;47577;43.610;25.010;2023-06-10T01:55:47;99930.28;;;15.95;74.93
61682;BME280;47577;43.610;25.010;2023-06-10T01:58:12;99918.41;;;15.70;75.59
61682;BME280;47577;43.610;25.010;2023-06-10T02:00:38;99932.88;;;15.82;75.19
61682;BME280;47577;43.610;25.010;2023-06-10T02:03:04;99926.00;;;15.78;75.42
61682;BME280;47577;43.610;25.010;2023-06-10T02:05:29;99930.94;;;15.70;77.17
61682;BME280;47577;43.610;25.010;2023-06-10T02:07:55;99926.63;;;15.67;77.60
61682;BME280;47577;43.610;25.010;2023-06-10T02:10:20;99928.59;;;15.80;75.80
61682;BME280;47577;43.610;25.010;2023-06-10T02:12:49;99934.28;;;15.73;76.01
61682;BME280;47577;43.610;25.010;2023-06-10T02:15:14;99924.34;;;15.76;77.29
61682;BME280;47577;43.610;25.010;2023-06-10T02:17:40;99927.50;;;15.82;74.89
61682;BME280;47577;43.610;25.010;2023-06-10T02:20:06;99927.88;;;15.90;74.82
61682;BME280;47577;43.610;25.010;2023-06-10T02:22:33;99918.16;;;15.89;75.19
61682;BME280;47577;43.610;25.010;2023-06-10T02:24:59;99923.78;;;15.99;74.66
61682;BME280;47577;43.610;25.010;2023-06-10T02:27:25;99916.28;;;16.04;74.75
61682;BME280;47577;43.610;25.010;2023-06-10T02:29:50;99918.31;;;16.01;76.54
61682;BME280;47577;43.610;25.010;2023-06-10T02:32:16;99916.94;;;16.08;76.59
61682;BME280;47577;43.610;25.010;2023-06-10T02:34:42;99925.94;;;16.21;73.95
61682;BME280;47577;43.610;25.010;2023-06-10T02:37:09;99920.25;;;16.26;76.49
61682;BME280;47577;43.610;25.010;2023-06-10T02:39:35;99918.75;;;16.22;77.07
61682;BME280;47577;43.610;25.010;2023-06-10T02:42:00;99912.53;;;16.21;74.39
61682;BME280;47577;43.610;25.010;2023-06-10T02:44:26;99915.91;;;16.11;74.43
61682;BME280;47577;43.610;25.010;2023-06-10T02:46:52;99914.56;;;16.03;76.10
61682;BME280;47577;43.610;25.010;2023-06-10T02:49:17;99914.06;;;16.11;75.47
61682;BME280;47577;43.610;25.010;2023-06-10T02:51:44;99909.88;;;16.07;75.22
61682;BME280;47577;43.610;25.010;2023-06-10T02:54:10;99923.47;;;16.18;76.15
61682;BME280;47577;43.610;25.010;2023-06-10T02:56:35;99925.25;;;16.18;77.42
61682;BME280;47577;43.610;25.010;2023-06-10T02:59:01;99915.31;;;16.20;75.14
61682;BME280;47577;43.610;25.010;2023-06-10T03:01:28;99914.41;;;16.34;75.30
61682;BME280;47577;43.610;25.010;2023-06-10T03:03:53;99920.63;;;16.34;75.43
61682;BME280;47577;43.610;25.010;2023-06-10T03:06:21;99916.69;;;16.40;75.28
61682;BME280;47577;43.610;25.010;2023-06-10T03:08:49;99930.22;;;16.38;74.93
61682;BME280;47577;43.610;25.010;2023-06-10T03:11:15;99913.16;;;16.39;74.14
61682;BME280;47577;43.610;25.010;2023-06-10T03:13:41;99903.56;;;16.35;74.61
61682;BME280;47577;43.610;25.010;2023-06-10T03:16:06;99934.28;;;16.44;74.59
61682;BME280;47577;43.610;25.010;2023-06-10T03:18:33;99912.38;;;16.37;75.05
61682;BME280;47577;43.610;25.010;2023-06-10T03:20:58;99921.16;;;16.54;75.05
61682;BME280;47577;43.610;25.010;2023-06-10T03:23:24;99929.47;;;16.76;75.26
61682;BME280;47577;43.610;25.010;2023-06-10T03:25:50;99914.25;;;16.77;75.37
61682;BME280;47577;43.610;25.010;2023-06-10T03:28:15;99923.88;;;17.07;74.32
61682;BME280;47577;43.610;25.010;2023-06-10T03:30:41;99925.31;;;17.25;73.09
61682;BME280;47577;43.610;25.010;2023-06-10T03:33:06;99921.03;;;17.35;73.48
61682;BME280;47577;43.610;25.010;2023-06-10T03:35:32;99925.88;;;17.56;71.48
61682;BME280;47577;43.610;25.010;2023-06-10T03:37:58;99931.03;;;17.72;71.20
61682;BME280;47577;43.610;25.010;2023-06-10T03:40:24;99926.69;;;17.82;71.26
61682;BME280;47577;43.610;25.010;2023-06-10T03:42:51;99931.75;;;18.00;70.75
61682;BME280;47577;43.610;25.010;2023-06-10T03:45:16;99929.72;;;18.03;70.71
61682;BME280;47577;43.610;25.010;2023-06-10T03:47:42;99927.22;;;18.13;70.22
61682;BME280;47577;43.610;25.010;2023-06-10T03:50:09;99924.09;;;18.06;71.58
61682;BME280;47577;43.610;25.010;2023-06-10T03:52:35;99926.19;;;17.90;70.64
61682;BME280;47577;43.610;25.010;2023-06-10T03:55:02;99922.16;;;18.08;69.86
61682;BME280;47577;43.610;25.010;2023-06-10T03:57:27;99920.28;;;18.22;70.22
61682;BME280;47577;43.610;25.010;2023-06-10T03:59:53;99906.56;;;18.38;70.50
61682;BME280;47577;43.610;25.010;2023-06-10T04:02:19;99907.84;;;18.45;69.63
61682;BME280;47577;43.610;25.010;2023-06-10T04:04:45;99916.75;;;18.45;70.74
61682;BME280;47577;43.610;25.010;2023-06-10T04:07:10;99922.25;;;18.44;71.02
61682;BME280;47577;43.610;25.010;2023-06-10T04:09:36;99921.47;;;18.55;70.80
61682;BME280;47577;43.610;25.010;2023-06-10T04:12:02;99926.63;;;18.58;72.58
61682;BME280;47577;43.610;25.010;2023-06-10T04:14:31;99939.22;;;18.57;72.38
61682;BME280;47577;43.610;25.010;2023-06-10T04:16:57;99923.72;;;18.48;73.63
61682;BME280;47577;43.610;25.010;2023-06-10T04:19:22;99935.66;;;18.57;73.06
61682;BME280;47577;43.610;25.010;2023-06-10T04:21:48;99937.91;;;18.63;73.63
61682;BME280;47577;43.610;25.010;2023-06-10T04:24:14;99921.75;;;18.63;73.63
61682;BME280;47577;43.610;25.010;2023-06-10T04:26:39;99939.72;;;18.62;74.96
61682;BME280;47577;43.610;25.010;2023-06-10T04:29:05;99936.69;;;18.67;74.58
61682;BME280;47577;43.610;25.010;2023-06-10T04:31:30;99939.50;;;18.66;76.36
61682;BME280;47577;43.610;25.010;2023-06-10T04:33:57;99940.72;;;18.61;76.00
61682;BME280;47577;43.610;25.010;2023-06-10T04:36:23;99947.13;;;18.72;75.22
61682;BME280;47577;43.610;25.010;2023-06-10T04:38:49;99948.06;;;18.84;76.15
61682;BME280;47577;43.610;25.010;2023-06-10T04:41:17;99944.66;;;18.93;76.72
61682;BME280;47577;43.610;25.010;2023-06-10T04:43:43;99944.75;;;18.67;79.02
61682;BME280;47577;43.610;25.010;2023-06-10T04:46:08;99935.47;;;18.84;76.92
61682;BME280;47577;43.610;25.010;2023-06-10T04:48:35;99945.78;;;18.90;78.14
61682;BME280;47577;43.610;25.010;2023-06-10T04:51:01;99943.25;;;19.00;76.79
61682;BME280;47577;43.610;25.010;2023-06-10T04:53:27;99945.94;;;18.76;79.20
61682;BME280;47577;43.610;25.010;2023-06-10T04:55:54;99942.09;;;18.91;79.28
61682;BME280;47577;43.610;25.010;2023-06-10T04:58:19;99947.38;;;18.93;77.40
61682;BME280;47577;43.610;25.010;2023-06-10T05:00:45;99943.69;;;18.94;77.82
61682;BME280;47577;43.610;25.010;2023-06-10T05:03:11;99942.41;;;19.11;78.39
61682;BME280;47577;43.610;25.010;2023-06-10T05:05:36;99941.19;;;19.15;78.55
61682;BME280;47577;43.610;25.010;2023-06-10T05:08:02;99941.94;;;19.17;77.92
61682;BME280;47577;43.610;25.010;2023-06-10T05:10:27;99946.75;;;19.25;79.61
61682;BME280;47577;43.610;25.010;2023-06-10T05:12:57;99940.50;;;19.35;78.17
61682;BME280;47577;43.610;25.010;2023-06-10T05:15:23;99939.56;;;19.48;78.01
61682;BME280;47577;43.610;25.010;2023-06-10T05:17:48;99951.81;;;19.52;76.99
61682;BME280;47577;43.610;25.010;2023-06-10T05:20:15;99935.53;;;19.53;77.53
61682;BME280;47577;43.610;25.010;2023-06-10T05:22:41;99956.59;;;19.60;77.34
61682;BME280;47577;43.610;25.010;2023-06-10T05:25:07;99949.63;;;19.57;78.11
61682;BME280;47577;43.610;25.010;2023-06-10T05:27:33;99939.56;;;19.59;78.49
61682;BME280;47577;43.610;25.010;2023-06-10T05:29:58;99953.06;;;19.70;78.10
61682;BME280;47577;43.610;25.010;2023-06-10T05:32:24;99949.41;;;19.71;78.54
61682;BME280;47577;43.610;25.010;2023-06-10T05:34:50;99956.16;;;19.88;77.04
61682;BME280;47577;43.610;25.010;2023-06-10T05:37:16;99944.75;;;19.85;78.06
61682;BME280;47577;43.610;25.010;2023-06-10T05:39:41;99951.84;;;19.75;77.77
61682;BME280;47577;43.610;25.010;2023-06-10T05:42:07;99950.88;;;19.87;78.38
61682;BME280;47577;43.610;25.010;2023-06-10T05:44:33;99950.66;;;19.90;77.52
61682;BME280;47577;43.610;25.010;2023-06-10T05:46:59;99945.50;;;19.98;79.16
61682;BME280;47577;43.610;25.010;2023-06-10T05:49:24;99935.28;;;20.13;77.86
61682;BME280;47577;43.610;25.010;2023-06-10T05:51:50;99935.16;;;20.26;76.79
61682;BME280;47577;43.610;25.010;2023-06-10T05:54:17;99938.59;;;20.39;76.58
61682;BME280;47577;43.610;25.010;2023-06-10T05:56:43;99942.38;;;20.37;76.37
61682;BME280;47577;43.610;25.010;2023-06-10T05:59:09;99939.78;;;20.46;75.84
61682;BME280;47577;43.610;25.010;2023-06-10T06:01:35;99946.66;;;20.51;73.94
61682;BME280;47577;43.610;25.010;2023-06-10T06:04:00;99946.25;;;20.67;72.91
61682;BME280;47577;43.610;25.010;2023-06-10T06:06:26;99955.28;;;20.88;72.90
61682;BME280;47577;43.610;25.010;2023-06-10T06:08:52;99958.28;;;21.06;72.92
61682;BME280;47577;43.610;25.010;2023-06-10T06:11:17;99954.72;;;21.27;71.55
61682;BME280;47577;43.610;25.010;2023-06-10T06:13:43;99957.81;;;21.43;71.19
61682;BME280;47577;43.610;25.010;2023-06-10T06:16:08;99955.94;;;21.55;69.97
61682;BME280;47577;43.610;25.010;2023-06-10T06:18:34;99955.31;;;21.72;70.83
61682;BME280;47577;43.610;25.010;2023-06-10T06:21:00;99946.53;;;21.80;69.83
61682;BME280;47577;43.610;25.010;2023-06-10T06:23:25;99946.13;;;21.95;68.87
61682;BME280;47577;43.610;25.010;2023-06-10T06:25:51;99947.94;;;22.15;68.09
61682;BME280;47577;43.610;25.010;2023-06-10T06:28:17;99939.41;;;22.20;67.49
61682;BME280;47577;43.610;25.010;2023-06-10T06:30:44;99954.09;;;22.27;66.48
61682;BME280;47577;43.610;25.010;2023-06-10T06:33:10;99951.16;;;22.40;65.39
61682;BME280;47577;43.610;25.010;2023-06-10T06:35:35;99942.50;;;22.46;69.55
61682;BME280;47577;43.610;25.010;2023-06-10T06:38:03;99944.50;;;22.54;69.88
61682;BME280;47577;43.610;25.010;2023-06-10T06:40:29;99940.34;;;22.50;69.20
61682;BME280;47577;43.610;25.010;2023-06-10T06:42:55;99944.38;;;22.55;68.86
61682;BME280;47577;43.610;25.010;2023-06-10T06:45:21;99934.66;;;22.62;70.79
61682;BME280;47577;43.610;25.010;2023-06-10T06:47:46;99932.56;;;22.66;68.42
61682;BME280;47577;43.610;25.010;2023-06-10T06:50:12;99934.09;;;22.69;69.67
61682;BME280;47577;43.610;25.010;2023-06-10T06:52:37;99935.09;;;22.68;69.63
61682;BME280;47577;43.610;25.010;2023-06-10T06:55:03;99927.84;;;22.68;69.63
61682;BME280;47577;43.610;25.010;2023-06-10T06:57:29;99918.28;;;22.74;69.19
61682;BME280;47577;43.610;25.010;2023-06-10T06:59:54;99928.97;;;22.85;67.03
61682;BME280;47577;43.610;25.010;2023-06-10T07:02:20;99929.84;;;22.76;68.29
61682;BME280;47577;43.610;25.010;2023-06-10T07:04:46;99928.56;;;22.90;69.32
61682;BME280;47577;43.610;25.010;2023-06-10T07:07:14;99923.84;;;23.01;68.38
61682;BME280;47577;43.610;25.010;2023-06-10T07:09:40;99924.84;;;23.00;68.63
61682;BME280;47577;43.610;25.010;2023-06-10T07:12:06;99911.16;;;23.02;68.50
61682;BME280;47577;43.610;25.010;2023-06-10T07:14:32;99929.72;;;23.16;66.63
61682;BME280;47577;43.610;25.010;2023-06-10T07:16:58;99916.59;;;23.22;66.66
61682;BME280;47577;43.610;25.010;2023-06-10T07:19:23;99921.13;;;23.31;68.20
61682;BME280;47577;43.610;25.010;2023-06-10T07:21:49;99928.25;;;23.32;65.93
61682;BME280;47577;43.610;25.010;2023-06-10T07:24:15;99918.97;;;23.44;66.93
61682;BME280;47577;43.610;25.010;2023-06-10T07:26:40;99932.47;;;23.64;67.06
61682;BME280;47577;43.610;25.010;2023-06-10T07:29:06;99924.84;;;23.77;65.65
61682;BME280;47577;43.610;25.010;2023-06-10T07:31:31;99931.25;;;23.86;65.84
61682;BME280;47577;43.610;25.010;2023-06-10T07:33:57;99934.25;;;23.93;65.46
61682;BME280;47577;43.610;25.010;2023-06-10T07:36:23;99926.91;;;24.03;64.85
61682;BME280;47577;43.610;25.010;2023-06-10T07:38:48;99933.78;;;23.97;64.97
61682;BME280;47577;43.610;25.010;2023-06-10T07:41:14;99928.06;;;24.00;65.24
61682;BME280;47577;43.610;25.010;2023-06-10T07:43:43;99928.94;;;24.01;66.28
61682;BME280;47577;43.610;25.010;2023-06-10T07:46:08;99934.13;;;23.94;65.53
61682;BME280;47577;43.610;25.010;2023-06-10T07:48:34;99941.09;;;23.97;65.19
61682;BME280;47577;43.610;25.010;2023-06-10T07:51:00;99933.19;;;24.03;64.87
61682;BME280;47577;43.610;25.010;2023-06-10T07:53:25;99932.69;;;23.90;65.83
61682;BME280;47577;43.610;25.010;2023-06-10T07:55:51;99933.34;;;24.02;64.83
61682;BME280;47577;43.610;25.010;2023-06-10T07:58:16;99942.50;;;24.01;67.10
61682;BME280;47577;43.610;25.010;2023-06-10T08:00:42;99936.72;;;24.14;65.88
61682;BME280;47577;43.610;25.010;2023-06-10T08:03:08;99942.97;;;24.24;64.00
61682;BME280;47577;43.610;25.010;2023-06-10T08:05:33;99937.31;;;24.35;64.85
61682;BME280;47577;43.610;25.010;2023-06-10T08:07:59;99943.16;;;24.40;64.69
61682;BME280;47577;43.610;25.010;2023-06-10T08:10:25;99941.53;;;24.48;65.25
61682;BME280;47577;43.610;25.010;2023-06-10T08:12:50;99952.47;;;24.66;62.50
61682;BME280;47577;43.610;25.010;2023-06-10T08:15:16;99941.28;;;24.69;64.19
61682;BME280;47577;43.610;25.010;2023-06-10T08:17:41;99954.06;;;24.58;63.44
61682;BME280;47577;43.610;25.010;2023-06-10T08:20:07;99947.63;;;24.59;64.65
61682;BME280;47577;43.610;25.010;2023-06-10T08:22:33;99939.03;;;24.64;64.07
61682;BME280;47577;43.610;25.010;2023-06-10T08:24:59;99943.22;;;24.76;62.88
61682;BME280;47577;43.610;25.010;2023-06-10T08:27:24;99933.59;;;24.82;63.75
61682;BME280;47577;43.610;25.010;2023-06-10T08:29:50;99938.09;;;24.91;63.77
61682;BME280;47577;43.610;25.010;2023-06-10T08:32:16;99938.34;;;24.98;62.59
61682;BME280;47577;43.610;25.010;2023-06-10T08:34:41;99942.22;;;24.95;64.40
61682;BME280;47577;43.610;25.010;2023-06-10T08:37:07;99939.88;;;25.00;62.49
61682;BME280;47577;43.610;25.010;2023-06-10T08:39:33;99942.28;;;24.86;60.25
61682;BME280;47577;43.610;25.010;2023-06-10T08:44:42;99939.16;;;25.16;59.49
61682;BME280;47577;43.610;25.010;2023-06-10T08:47:17;99943.78;;;24.98;57.30
61682;BME280;47577;43.610;25.010;2023-06-10T08:49:45;99935.81;;;25.23;59.34
61682;BME280;47577;43.610;25.010;2023-06-10T08:52:37;99942.97;;;25.24;57.38
61682;BME280;47577;43.610;25.010;2023-06-10T08:55:30;99929.28;;;25.15;58.43
61682;BME280;47577;43.610;25.010;2023-06-10T08:57:59;99932.66;;;25.27;57.07
61682;BME280;47577;43.610;25.010;2023-06-10T09:00:26;99927.16;;;25.45;58.10
61682;BME280;47577;43.610;25.010;2023-06-10T09:02:52;99931.31;;;25.58;57.16
61682;BME280;47577;43.610;25.010;2023-06-10T09:05:18;99929.47;;;25.14;57.37
61682;BME280;47577;43.610;25.010;2023-06-10T09:07:45;99936.28;;;25.36;60.16
61682;BME280;47577;43.610;25.010;2023-06-10T09:10:11;99922.94;;;25.51;55.77
61682;BME280;47577;43.610;25.010;2023-06-10T09:12:37;99924.03;;;25.58;55.84
61682;BME280;47577;43.610;25.010;2023-06-10T09:15:06;99923.09;;;25.76;56.08
61682;BME280;47577;43.610;25.010;2023-06-10T09:17:32;99917.13;;;25.98;53.26
61682;BME280;47577;43.610;25.010;2023-06-10T09:19:59;99917.88;;;26.25;52.77
61682;BME280;47577;43.610;25.010;2023-06-10T09:22:25;99912.34;;;26.00;54.03
61682;BME280;47577;43.610;25.010;2023-06-10T09:25:05;99898.47;;;26.20;52.54
61682;BME280;47577;43.610;25.010;2023-06-10T09:27:32;99898.34;;;26.38;53.67
61682;BME280;47577;43.610;25.010;2023-06-10T09:29:58;99898.25;;;26.64;52.70
61682;BME280;47577;43.610;25.010;2023-06-10T09:32:24;99904.25;;;26.92;53.60
61682;BME280;47577;43.610;25.010;2023-06-10T09:34:50;99902.69;;;27.14;50.69
61682;BME280;47577;43.610;25.010;2023-06-10T09:37:25;99900.81;;;27.48;47.85
61682;BME280;47577;43.610;25.010;2023-06-10T09:40:07;99895.44;;;27.79;46.10
61682;BME280;47577;43.610;25.010;2023-06-10T09:42:34;99890.44;;;27.99;47.71
61682;BME280;47577;43.610;25.010;2023-06-10T09:45:02;99877.47;;;28.01;48.98
61682;BME280;47577;43.610;25.010;2023-06-10T09:47:28;99890.94;;;27.14;39.52
61682;BME280;47577;43.610;25.010;2023-06-10T09:49:54;99899.28;;;27.45;43.47
61682;BME280;47577;43.610;25.010;2023-06-10T09:52:23;99892.28;;;27.51;43.73
61682;BME280;47577;43.610;25.010;2023-06-10T09:54:51;99884.09;;;27.51;44.70
61682;BME280;47577;43.610;25.010;2023-06-10T09:57:18;99878.78;;;27.58;44.89
61682;BME280;47577;43.610;25.010;2023-06-10T09:59:45;99884.78;;;27.45;44.71
61682;BME280;47577;43.610;25.010;2023-06-10T10:02:17;99882.22;;;27.27;43.05
61682;BME280;47577;43.610;25.010;2023-06-10T10:04:46;99873.41;;;27.81;41.96
61682;BME280;47577;43.610;25.010;2023-06-10T10:07:12;99883.97;;;27.84;42.30
61682;BME280;47577;43.610;25.010;2023-06-10T10:09:39;99873.88;;;28.01;40.96
61682;BME280;47577;43.610;25.010;2023-06-10T10:12:11;99872.69;;;27.47;37.56
61682;BME280;47577;43.610;25.010;2023-06-10T10:14:38;99872.78;;;27.70;39.99
61682;BME280;47577;43.610;25.010;2023-06-10T10:17:07;99876.16;;;27.72;37.36
61682;BME280;47577;43.610;25.010;2023-06-10T10:19:40;99861.25;;;27.35;38.35
61682;BME280;47577;43.610;25.010;2023-06-10T10:22:15;99855.13;;;27.33;39.10
61682;BME280;47577;43.610;25.010;2023-06-10T10:24:52;99853.66;;;27.70;38.23
61682;BME280;47577;43.610;25.010;2023-06-10T10:27:27;99857.59;;;28.16;38.39
61682;BME280;47577;43.610;25.010;2023-06-10T10:29:54;99861.63;;;28.20;35.17
61682;BME280;47577;43.610;25.010;2023-06-10T10:32:26;99858.47;;;27.60;34.19
61682;BME280;47577;43.610;25.010;2023-06-10T10:35:08;99850.28;;;27.52;36.47
61682;BME280;47577;43.610;25.010;2023-06-10T10:37:35;99842.91;;;28.08;39.39
61682;BME280;47577;43.610;25.010;2023-06-10T10:40:02;99848.78;;;28.60;39.98
61682;BME280;47577;43.610;25.010;2023-06-10T10:42:28;99848.69;;;28.68;34.48
61682;BME280;47577;43.610;25.010;2023-06-10T10:44:55;99845.59;;;28.71;34.55
61682;BME280;47577;43.610;25.010;2023-06-10T10:47:22;99840.81;;;29.11;35.45
61682;BME280;47577;43.610;25.010;2023-06-10T10:49:51;99842.84;;;29.32;36.58
61682;BME280;47577;43.610;25.010;2023-06-10T10:52:27;99838.63;;;29.60;34.44
61682;BME280;47577;43.610;25.010;2023-06-10T10:55:14;99835.13;;;29.81;36.15
61682;BME280;47577;43.610;25.010;2023-06-10T10:57:40;99834.16;;;29.59;33.17
61682;BME280;47577;43.610;25.010;2023-06-10T11:00:06;99827.56;;;29.53;33.40
61682;BME280;47577;43.610;25.010;2023-06-10T11:02:42;99830.00;;;29.78;33.01
61682;BME280;47577;43.610;25.010;2023-06-10T11:05:10;99827.25;;;29.78;33.70
61682;BME280;47577;43.610;25.010;2023-06-10T11:07:37;99829.84;;;29.64;34.28
61682;BME280;47577;43.610;25.010;2023-06-10T11:10:11;99822.38;;;29.43;34.45
61682;BME280;47577;43.610;25.010;2023-06-10T11:15:12;99815.66;;;29.90;34.64
61682;BME280;47577;43.610;25.010;2023-06-10T11:21:00;99808.16;;;30.57;36.22
61682;BME280;47577;43.610;25.010;2023-06-10T11:31:33;99796.56;;;30.84;33.68
61682;BME280;47577;43.610;25.010;2023-06-10T11:34:02;99795.22;;;30.51;31.04
61682;BME280;47577;43.610;25.010;2023-06-10T11:36:33;99796.69;;;30.47;34.97
61682;BME280;47577;43.610;25.010;2023-06-10T11:39:04;99792.53;;;30.58;32.80
61682;BME280;47577;43.610;25.010;2023-06-10T11:41:34;99782.34;;;30.73;31.37
61682;BME280;47577;43.610;25.010;2023-06-10T11:44:07;99780.31;;;30.82;33.49
61682;BME280;47577;43.610;25.010;2023-06-10T11:46:33;99782.97;;;30.97;32.75
61682;BME280;47577;43.610;25.010;2023-06-10T11:48:59;99779.31;;;31.18;34.20
61682;BME280;47577;43.610;25.010;2023-06-10T11:51:26;99784.06;;;31.38;32.79
61682;BME280;47577;43.610;25.010;2023-06-10T11:53:52;99774.44;;;31.13;32.58
61682;BME280;47577;43.610;25.010;2023-06-10T11:56:24;99772.66;;;30.99;31.00
61682;BME280;47577;43.610;25.010;2023-06-10T11:58:55;99773.06;;;30.96;32.10
61682;BME280;47577;43.610;25.010;2023-06-10T12:01:24;99769.81;;;31.14;29.93
61682;BME280;47577;43.610;25.010;2023-06-10T12:04:06;99772.63;;;31.27;31.09
61682;BME280;47577;43.610;25.010;2023-06-10T12:06:53;99760.53;;;31.57;29.68
61682;BME280;47577;43.610;25.010;2023-06-10T12:09:28;99761.09;;;31.45;29.99
61682;BME280;47577;43.610;25.010;2023-06-10T12:12:00;99765.59;;;31.18;31.33
61682;BME280;47577;43.610;25.010;2023-06-10T12:14:55;99759.41;;;31.44;29.49
61682;BME280;47577;43.610;25.010;2023-06-10T12:17:23;99765.00;;;31.58;28.98
61682;BME280;47577;43.610;25.010;2023-06-10T12:20:03;99760.13;;;31.53;29.91
61682;BME280;47577;43.610;25.010;2023-06-10T12:22:43;99757.06;;;31.34;31.32
61682;BME280;47577;43.610;25.010;2023-06-10T12:25:10;99754.34;;;31.41;33.22
61682;BME280;47577;43.610;25.010;2023-06-10T12:27:35;99756.16;;;31.62;31.97
61682;BME280;47577;43.610;25.010;2023-06-10T12:30:04;99748.09;;;31.54;32.78
61682;BME280;47577;43.610;25.010;2023-06-10T12:32:45;99744.09;;;31.70;32.37
61682;BME280;47577;43.610;25.010;2023-06-10T12:35:19;99740.22;;;30.81;31.87
61682;BME280;47577;43.610;25.010;2023-06-10T12:37:58;99748.53;;;30.94;35.16
61682;BME280;47577;43.610;25.010;2023-06-10T12:40:34;99737.88;;;31.48;33.55
61682;BME280;47577;43.610;25.010;2023-06-10T12:43:01;99739.47;;;31.70;31.07
61682;BME280;47577;43.610;25.010;2023-06-10T12:48:10;99741.97;;;32.20;30.70
61682;BME280;47577;43.610;25.010;2023-06-10T12:50:41;99735.63;;;32.33;29.53
61682;BME280;47577;43.610;25.010;2023-06-10T12:53:07;99737.09;;;32.42;30.02
61682;BME280;47577;43.610;25.010;2023-06-10T12:55:33;99736.06;;;32.30;30.28
61682;BME280;47577;43.610;25.010;2023-06-10T12:58:00;99732.03;;;32.39;29.34
61682;BME280;47577;43.610;25.010;2023-06-10T13:00:27;99723.94;;;32.04;30.85
61682;BME280;47577;43.610;25.010;2023-06-10T13:03:00;99726.47;;;32.06;29.43
61682;BME280;47577;43.610;25.010;2023-06-10T13:05:27;99724.19;;;32.30;30.24
61682;BME280;47577;43.610;25.010;2023-06-10T13:07:53;99731.38;;;32.51;32.06
61682;BME280;47577;43.610;25.010;2023-06-10T13:10:20;99719.34;;;32.45;29.58
61682;BME280;47577;43.610;25.010;2023-06-10T13:12:45;99718.72;;;32.63;28.36
61682;BME280;47577;43.610;25.010;2023-06-10T13:15:12;99717.84;;;32.42;29.98
61682;BME280;47577;43.610;25.010;2023-06-10T13:17:38;99726.31;;;32.41;31.93